Time;durP1;ratioP1;P1;durP2;ratioP2;P2;SDS_P1;SDS_P2;PMS_P1;PMS_P2;Temp;Humidity;BMP_temperature;BMP_pressure;BME280_temperature;BME280_humidity;BME280_pressure;Samples;Min_cycle;Max_cycle;Signal;HPM_P1;HPM_P2
2021/11/07 00:04:41;;;;;;;27.40;19.83;;;9.30;93.20;;;;;;5030597;28;20180;-87
2021/11/07 00:10:02;;;;;;;21.43;13.73;;;9.40;93.10;;;;;;5054295;28;20156;-87
2021/11/07 00:12:31;;;;;;;23.00;17.73;;;9.40;93.00;;;;;;5054060;28;20421;-87
2021/11/07 00:14:57;;;;;;;19.53;14.77;;;9.40;93.00;;;;;;5036029;28;20258;-88
2021/11/07 00:17:26;;;;;;;15.43;13.47;;;9.30;93.10;;;;;;5036138;28;20234;-88
2021/11/07 00:20:04;;;;;;;17.87;15.97;;;9.40;93.20;;;;;;5036235;28;20172;-87
2021/11/07 00:22:43;;;;;;;22.63;16.10;;;9.40;93.20;;;;;;5037292;28;20175;-88
2021/11/07 00:25:26;;;;;;;15.33;12.57;;;9.30;93.20;;;;;;5035573;28;20648;-87
2021/11/07 00:27:56;;;;;;;16.67;13.63;;;9.30;93.30;;;;;;5053982;28;20214;-88
2021/11/07 00:30:35;;;;;;;18.47;14.57;;;9.30;93.20;;;;;;5053813;28;20149;-87
2021/11/07 00:33:17;;;;;;;19.90;17.20;;;9.40;93.20;;;;;;5035839;28;20176;-87
2021/11/07 00:38:39;;;;;;;17.80;14.57;;;9.40;92.80;;;;;;5054232;28;20199;-87
2021/11/07 00:43:45;;;;;;;14.10;12.13;;;9.50;92.50;;;;;;5053814;28;20167;-88
2021/11/07 00:46:21;;;;;;;15.57;13.77;;;9.50;92.70;;;;;;5036363;28;20567;-88
2021/11/07 00:48:52;;;;;;;14.87;11.47;;;9.50;92.80;;;;;;5035517;28;20192;-88
2021/11/07 00:51:42;;;;;;;14.90;12.87;;;9.50;92.70;;;;;;5035672;28;20298;-88
2021/11/07 00:56:49;;;;;;;18.97;12.33;;;9.60;92.40;;;;;;5053481;28;20690;-88
2021/11/07 01:02:18;;;;;;;9.33;8.27;;;9.60;92.80;;;;;;5053854;28;20351;-88
2021/11/07 01:04:47;;;;;;;12.50;11.30;;;9.50;93.00;;;;;;5035692;28;20632;-88
2021/11/07 01:07:14;;;;;;;22.07;19.30;;;9.70;92.50;;;;;;5052959;28;20210;-88
2021/11/07 01:09:40;;;;;;;12.23;10.83;;;9.70;92.30;;;;;;5035301;28;20180;-89
2021/11/07 01:12:07;;;;;;;13.20;11.93;;;9.70;92.60;;;;;;5053108;28;20259;-89
2021/11/07 01:14:32;;;;;;;18.20;16.30;;;9.70;92.60;;;;;;5052991;28;20251;-88
2021/11/07 01:16:59;;;;;;;16.57;14.67;;;9.70;92.50;;;;;;5052923;28;20334;-89
2021/11/07 01:19:25;;;;;;;18.10;16.40;;;9.70;92.50;;;;;;5051747;28;20176;-88
2021/11/07 01:21:51;;;;;;;14.87;12.80;;;9.70;92.70;;;;;;5035238;28;20207;-88
2021/11/07 01:24:29;;;;;;;16.33;14.07;;;9.70;92.50;;;;;;5035128;28;20186;-88
2021/11/07 01:27:06;;;;;;;10.83;9.33;;;9.70;92.50;;;;;;5035178;28;20684;-88
2021/11/07 01:29:38;;;;;;;14.97;12.60;;;9.80;92.40;;;;;;5035186;28;20562;-89
2021/11/07 01:32:04;;;;;;;11.80;10.43;;;9.80;92.50;;;;;;5035050;28;20267;-88
2021/11/07 01:37:06;;;;;;;15.00;13.47;;;9.70;92.80;;;;;;5056745;28;20260;-87
2021/11/07 01:42:06;;;;;;;12.27;10.23;;;9.70;93.00;;;;;;5057293;28;20229;-88
2021/11/07 01:44:44;;;;;;;10.77;9.63;;;9.60;93.00;;;;;;5056762;28;20214;-88
2021/11/07 01:47:11;;;;;;;11.93;10.70;;;9.70;92.90;;;;;;5038703;28;20219;-88
2021/11/07 01:49:40;;;;;;;11.60;10.17;;;9.70;93.00;;;;;;5038813;28;20255;-88
2021/11/07 01:52:08;;;;;;;15.87;14.20;;;9.70;93.00;;;;;;5056588;28;20198;-88
2021/11/07 01:57:18;;;;;;;16.33;12.73;;;9.70;93.10;;;;;;5056484;28;20210;-88
2021/11/07 01:59:55;;;;;;;12.03;10.47;;;9.70;93.20;;;;;;5038571;28;20176;-88
2021/11/07 02:02:24;;;;;;;13.90;12.50;;;9.70;93.10;;;;;;5056584;28;20600;-88
2021/11/07 02:04:50;;;;;;;15.83;14.33;;;9.70;92.90;;;;;;5056460;28;20172;-88
2021/11/07 02:07:16;;;;;;;12.50;11.20;;;9.70;92.80;;;;;;5038311;28;20283;-88
2021/11/07 02:09:41;;;;;;;12.43;11.27;;;9.80;93.00;;;;;;5056203;28;20247;-87
2021/11/07 02:12:08;;;;;;;10.70;9.60;;;9.80;92.90;;;;;;5056256;28;20164;-88
2021/11/07 02:14:34;;;;;;;13.40;11.93;;;9.80;93.00;;;;;;5038243;28;20176;-88
2021/11/07 02:17:00;;;;;;;9.27;8.37;;;9.80;92.90;;;;;;5038000;28;20265;-88
2021/11/07 02:19:27;;;;;;;10.40;9.40;;;9.80;92.80;;;;;;5056135;28;20164;-88
2021/11/07 02:21:53;;;;;;;12.13;9.93;;;9.90;92.70;;;;;;5038260;28;20183;-88
2021/11/07 02:24:20;;;;;;;16.13;8.33;;;9.90;92.50;;;;;;5038286;28;20180;-88
2021/11/07 02:27:09;;;;;;;11.67;9.53;;;9.90;92.40;;;;;;5056029;28;20198;-88
2021/11/07 02:29:37;;;;;;;11.23;8.57;;;9.90;92.40;;;;;;5038154;28;20168;-89
2021/11/07 02:32:05;;;;;;;9.50;8.57;;;9.90;92.70;;;;;;5055821;28;20251;-89
2021/11/07 02:34:31;;;;;;;11.27;7.63;;;9.90;92.60;;;;;;5037997;28;20205;-88
2021/11/07 02:36:57;;;;;;;9.17;8.37;;;9.90;92.40;;;;;;5037690;28;20286;-88
2021/11/07 02:39:25;;;;;;;8.50;7.17;;;9.90;92.30;;;;;;5037857;28;20176;-88
2021/11/07 02:41:52;;;;;;;6.83;6.10;;;9.90;92.30;;;;;;5055606;28;20282;-88
2021/11/07 02:44:37;;;;;;;9.13;7.43;;;9.90;92.30;;;;;;5055552;28;20258;-88
2021/11/07 02:47:05;;;;;;;9.33;8.37;;;9.90;92.40;;;;;;5036908;28;20691;-88
2021/11/07 02:49:31;;;;;;;9.70;8.80;;;9.90;92.60;;;;;;5055450;28;20160;-88
2021/11/07 02:51:59;;;;;;;7.97;7.10;;;9.90;92.70;;;;;;5055457;28;20168;-88
2021/11/07 02:54:25;;;;;;;9.83;8.20;;;9.90;92.70;;;;;;5055385;28;20167;-88
2021/11/07 02:56:51;;;;;;;10.43;8.17;;;9.80;92.90;;;;;;5037519;28;20552;-87
2021/11/07 02:59:24;;;;;;;9.17;6.67;;;9.90;92.80;;;;;;5037496;28;20176;-88
2021/11/07 03:01:52;;;;;;;12.30;9.13;;;9.90;92.90;;;;;;5037433;28;20222;-88
2021/11/07 03:04:17;;;;;;;8.57;7.77;;;9.90;92.80;;;;;;5037372;28;20191;-88
2021/11/07 03:06:43;;;;;;;9.80;8.57;;;9.90;92.80;;;;;;5037215;28;20203;-88
2021/11/07 03:09:24;;;;;;;6.30;5.73;;;9.90;92.90;;;;;;5037381;28;20184;-88
2021/11/07 03:11:53;;;;;;;7.50;6.67;;;9.80;93.10;;;;;;5037999;28;20160;-88
2021/11/07 03:14:22;;;;;;;6.97;6.13;;;9.80;93.10;;;;;;5037334;28;20176;-88
2021/11/07 03:16:48;;;;;;;6.23;5.63;;;9.90;92.80;;;;;;5054824;28;20174;-88
2021/11/07 03:19:15;;;;;;;5.87;5.27;;;10.00;92.50;;;;;;5037093;28;20232;-88
2021/11/07 03:21:41;;;;;;;7.03;5.97;;;10.00;92.40;;;;;;5036965;28;20224;-88
2021/11/07 03:24:07;;;;;;;9.17;7.00;;;9.90;92.60;;;;;;5054880;28;20175;-88
2021/11/07 03:26:36;;;;;;;9.30;6.30;;;10.00;92.60;;;;;;5036926;28;20195;-88
2021/11/07 03:29:04;;;;;;;7.93;6.50;;;10.00;92.40;;;;;;5054821;28;20171;-88
2021/11/07 03:32:08;;;;;;;6.20;5.30;;;10.00;92.30;;;;;;5036915;28;20575;-88
2021/11/07 03:34:41;;;;;;;9.67;5.33;;;9.90;92.30;;;;;;5051465;28;20218;-88
2021/11/07 03:37:08;;;;;;;13.53;5.30;;;9.90;92.30;;;;;;5054636;28;20191;-88
2021/11/07 03:39:36;;;;;;;9.03;5.63;;;9.80;92.30;;;;;;5036861;28;20547;-88
2021/11/07 03:42:04;;;;;;;6.77;4.53;;;9.80;92.30;;;;;;5054560;28;20612;-88
2021/11/07 03:44:30;;;;;;;8.00;5.07;;;9.90;92.20;;;;;;5036511;28;20211;-88
2021/11/07 03:46:57;;;;;;;9.30;5.33;;;9.90;92.10;;;;;;5054759;28;20296;-88
2021/11/07 03:49:24;;;;;;;10.23;5.10;;;9.90;92.00;;;;;;5036532;28;20643;-88
2021/11/07 03:51:50;;;;;;;9.37;4.50;;;9.90;92.20;;;;;;5036457;28;20210;-88
2021/11/07 03:54:18;;;;;;;9.87;4.93;;;9.90;92.10;;;;;;5054192;28;20174;-88
2021/11/07 03:56:45;;;;;;;9.77;4.20;;;9.90;92.10;;;;;;5054188;28;20179;-88
2021/11/07 03:59:10;;;;;;;11.03;4.13;;;9.90;92.10;;;;;;5035602;28;20187;-87
2021/11/07 04:01:36;;;;;;;6.23;2.83;;;9.90;91.80;;;;;;5036324;28;20176;-87
2021/11/07 04:04:06;;;;;;;6.17;3.50;;;9.90;91.80;;;;;;5054068;28;20682;-88
2021/11/07 04:06:32;;;;;;;8.47;3.47;;;9.90;91.90;;;;;;5053855;28;20194;-87
2021/11/07 04:09:00;;;;;;;8.70;3.13;;;9.90;91.90;;;;;;5053990;28;20217;-87
2021/11/07 04:11:26;;;;;;;6.40;3.13;;;9.90;91.90;;;;;;5035994;28;20176;-87
2021/11/07 04:13:52;;;;;;;4.63;2.60;;;9.90;91.90;;;;;;5053971;28;20534;-88
2021/11/07 04:16:17;;;;;;;6.30;2.77;;;9.90;92.00;;;;;;5054016;28;20174;-87
2021/11/07 04:18:45;;;;;;;7.30;2.80;;;9.90;91.90;;;;;;5036033;28;20217;-88
2021/11/07 04:21:11;;;;;;;7.90;3.30;;;9.90;91.80;;;;;;5053821;28;20171;-89
2021/11/07 04:23:37;;;;;;;8.93;3.43;;;9.90;91.90;;;;;;5035900;28;20222;-88
2021/11/07 04:26:04;;;;;;;11.60;3.00;;;9.90;92.00;;;;;;5036244;28;20216;-87
2021/11/07 04:28:30;;;;;;;9.53;3.00;;;10.00;91.90;;;;;;5053563;28;20194;-88
2021/11/07 04:30:56;;;;;;;10.90;2.77;;;9.90;91.90;;;;;;5035780;28;20183;-88
2021/11/07 04:33:24;;;;;;;10.63;3.23;;;9.90;91.90;;;;;;5035675;28;20205;-88
2021/11/07 04:35:50;;;;;;;12.90;2.97;;;9.90;91.80;;;;;;5035605;28;20183;-87
2021/11/07 04:38:16;;;;;;;12.67;3.60;;;9.90;91.80;;;;;;5035582;28;20195;-88
2021/11/07 04:40:43;;;;;;;13.57;3.73;;;10.00;91.60;;;;;;5035600;28;20640;-88
2021/11/07 04:43:09;;;;;;;13.17;2.73;;;10.00;91.70;;;;;;5035849;28;20709;-87
2021/11/07 04:45:34;;;;;;;18.53;3.50;;;10.00;91.50;;;;;;5035340;28;20202;-88
2021/11/07 04:48:02;;;;;;;11.73;2.93;;;10.00;91.50;;;;;;5053356;28;20195;-88
2021/11/07 04:50:28;;;;;;;13.60;3.13;;;10.00;91.30;;;;;;5035457;28;20179;-88
2021/11/07 04:52:54;;;;;;;16.87;3.57;;;9.90;91.10;;;;;;5035459;28;20674;-88
2021/11/07 04:55:20;;;;;;;14.27;2.87;;;9.90;90.60;;;;;;5035423;28;20542;-88
2021/11/07 04:57:46;;;;;;;20.50;3.50;;;9.90;90.60;;;;;;5053007;28;20195;-88
2021/11/07 05:00:17;;;;;;;16.03;3.10;;;9.90;90.50;;;;;;5035474;28;20199;-88
2021/11/07 05:02:44;;;;;;;11.23;2.50;;;9.90;90.10;;;;;;5035421;28;20171;-87
2021/11/07 05:05:10;;;;;;;18.47;3.37;;;9.80;89.90;;;;;;5035345;28;20168;-88
2021/11/07 05:07:36;;;;;;;20.50;4.30;;;9.80;90.00;;;;;;5052982;28;20231;-88
2021/11/07 05:10:02;;;;;;;19.93;3.07;;;9.70;89.60;;;;;;5036825;28;20191;-88
2021/11/07 05:12:28;;;;;;;15.47;3.07;;;9.70;89.10;;;;;;5041948;28;20182;-88
2021/11/07 05:14:55;;;;;;;19.67;3.33;;;9.70;89.20;;;;;;5041787;28;20172;-88
2021/11/07 05:17:20;;;;;;;19.80;3.37;;;9.70;89.30;;;;;;5059599;28;20239;-88
2021/11/07 05:19:46;;;;;;;17.37;3.63;;;9.70;89.10;;;;;;5041830;28;20667;-88
2021/11/07 05:22:12;;;;;;;10.57;2.93;;;9.70;88.60;;;;;;5042018;28;20215;-88
2021/11/07 05:24:38;;;;;;;17.90;2.73;;;9.60;88.20;;;;;;5059595;28;20168;-88
2021/11/07 05:27:03;;;;;;;8.23;2.60;;;9.70;87.80;;;;;;5041523;28;20207;-88
2021/11/07 05:29:29;;;;;;;12.17;3.17;;;9.60;87.40;;;;;;5059635;28;20195;-88
2021/11/07 05:31:56;;;;;;;19.03;3.17;;;9.60;87.10;;;;;;5059689;28;20217;-88
2021/11/07 05:34:23;;;;;;;13.07;2.77;;;9.60;87.00;;;;;;5059837;28;20174;-88
2021/11/07 05:36:50;;;;;;;16.53;4.33;;;9.50;87.10;;;;;;5041866;28;20190;-88
2021/11/07 05:39:17;;;;;;;26.07;3.60;;;9.50;87.40;;;;;;5041655;28;20184;-88
2021/11/07 05:41:43;;;;;;;18.10;3.50;;;9.40;87.80;;;;;;5059543;28;20549;-88
2021/11/07 05:44:08;;;;;;;17.53;2.73;;;9.50;87.80;;;;;;5041650;28;20184;-88
2021/11/07 05:46:34;;;;;;;29.07;4.80;;;9.50;88.00;;;;;;5041407;28;20200;-88
2021/11/07 05:49:01;;;;;;;20.87;4.13;;;9.50;88.20;;;;;;5041762;28;20287;-88
2021/11/07 05:51:26;;;;;;;26.00;4.03;;;9.50;88.40;;;;;;5059536;28;20176;-88
2021/11/07 05:53:52;;;;;;;23.47;4.80;;;9.60;88.30;;;;;;5041616;28;20515;-87
2021/11/07 05:56:18;;;;;;;16.13;3.30;;;9.60;88.40;;;;;;5041456;28;20187;-89
2021/11/07 05:58:44;;;;;;;29.23;3.90;;;9.60;88.60;;;;;;5059355;28;20245;-88
2021/11/07 06:01:09;;;;;;;24.47;4.23;;;9.50;88.70;;;;;;5059361;28;20180;-88
2021/11/07 06:03:35;;;;;;;22.03;3.70;;;9.50;88.50;;;;;;5042553;28;20271;-88
2021/11/07 06:06:01;;;;;;;16.43;3.53;;;9.60;88.00;;;;;;5041343;28;20235;-88
2021/11/07 06:08:28;;;;;;;29.13;5.17;;;9.60;88.30;;;;;;5041838;28;20199;-89
2021/11/07 06:10:53;;;;;;;24.13;3.63;;;9.60;88.30;;;;;;5041483;28;20176;-88
2021/11/07 06:13:19;;;;;;;32.70;4.97;;;9.60;88.60;;;;;;5041619;28;20180;-88
2021/11/07 06:15:45;;;;;;;23.87;4.73;;;9.70;88.90;;;;;;5041433;28;20183;-88
2021/11/07 06:18:11;;;;;;;24.37;4.20;;;9.60;88.90;;;;;;5041056;28;20238;-88
2021/11/07 06:20:37;;;;;;;26.23;3.97;;;9.50;89.10;;;;;;5059163;28;20636;-87
2021/11/07 06:23:04;;;;;;;22.90;4.33;;;9.50;89.20;;;;;;5055338;28;20176;-88
2021/11/07 06:25:30;;;;;;;19.83;4.00;;;9.50;89.30;;;;;;5038188;28;20262;-88
2021/11/07 06:27:56;;;;;;;21.43;3.97;;;9.50;89.00;;;;;;5056077;28;20218;-88
2021/11/07 06:30:22;;;;;;;21.93;4.67;;;9.40;89.00;;;;;;5038062;28;20176;-87
2021/11/07 06:32:49;;;;;;;22.00;3.87;;;9.40;88.90;;;;;;5038062;28;20651;-88
2021/11/07 06:35:15;;;;;;;19.63;4.30;;;9.50;88.30;;;;;;5037945;28;20176;-88
2021/11/07 06:37:42;;;;;;;29.10;4.43;;;9.40;88.20;;;;;;5055693;28;20199;-88
2021/11/07 06:40:11;;;;;;;29.93;4.97;;;9.40;88.40;;;;;;5037886;28;20180;-88
2021/11/07 06:42:37;;;;;;;33.10;5.80;;;9.40;88.00;;;;;;5037940;28;20194;-88
2021/11/07 06:45:04;;;;;;;24.30;4.50;;;9.50;87.70;;;;;;5037795;28;20652;-87
2021/11/07 06:47:29;;;;;;;28.27;5.10;;;9.50;87.90;;;;;;5037663;28;20302;-88
2021/11/07 06:49:56;;;;;;;29.73;4.97;;;9.50;88.10;;;;;;5055550;28;20251;-88
2021/11/07 06:52:22;;;;;;;26.13;4.90;;;9.50;88.60;;;;;;5037686;28;20233;-88
2021/11/07 06:54:49;;;;;;;25.43;5.57;;;9.40;88.90;;;;;;5055701;28;20537;-88
2021/11/07 06:57:15;;;;;;;28.50;4.70;;;9.40;89.10;;;;;;5055711;28;20241;-88
2021/11/07 06:59:40;;;;;;;23.27;4.23;;;9.40;89.40;;;;;;5037452;28;20172;-87
2021/11/07 07:02:06;;;;;;;32.27;5.13;;;9.30;89.10;;;;;;5055283;28;20176;-88
2021/11/07 07:04:32;;;;;;;15.57;3.60;;;9.40;89.00;;;;;;5055262;28;20168;-87
2021/11/07 07:06:58;;;;;;;24.93;4.13;;;9.30;89.00;;;;;;5055413;28;20250;-87
2021/11/07 07:09:26;;;;;;;20.17;4.53;;;9.30;88.90;;;;;;5037429;28;20175;-88
2021/11/07 07:12:16;;;;;;;23.13;5.10;;;9.30;89.00;;;;;;5037478;28;20683;-87
2021/11/07 07:14:50;;;;;;;22.77;4.30;;;9.30;88.80;;;;;;5054844;28;20267;-88
2021/11/07 07:20:00;;;;;;;29.50;6.77;;;9.50;88.90;;;;;;5055543;28;20190;-88
2021/11/07 07:35:48;;;;;;;9.63;2.63;;;8.60;85.80;;;;;;5055079;28;20171;-88
2021/11/07 07:38:13;;;;;;;16.47;3.30;;;8.50;86.80;;;;;;5036698;28;20203;-87
2021/11/07 07:40:40;;;;;;;23.90;3.77;;;8.50;87.00;;;;;;5054585;28;20216;-88
2021/11/07 07:43:06;;;;;;;23.40;3.60;;;8.60;87.70;;;;;;5054562;28;20168;-88
2021/11/07 07:45:32;;;;;;;28.03;4.77;;;8.80;87.90;;;;;;5054585;28;20179;-88
2021/11/07 07:47:59;;;;;;;19.90;3.70;;;8.90;88.10;;;;;;5036909;28;20192;-88
2021/11/07 07:50:25;;;;;;;23.53;3.53;;;9.00;88.10;;;;;;5036586;28;20644;-88
2021/11/07 07:52:51;;;;;;;23.50;3.57;;;9.00;88.80;;;;;;5036592;28;20175;-88
2021/11/07 07:55:17;;;;;;;21.90;3.80;;;9.00;88.40;;;;;;5036423;28;20184;-88
2021/11/07 07:57:45;;;;;;;30.03;5.00;;;9.10;88.20;;;;;;5054335;28;20275;-88
2021/11/07 08:00:12;;;;;;;22.63;3.50;;;9.10;88.00;;;;;;5036462;28;20207;-86
2021/11/07 08:02:39;;;;;;;18.87;4.10;;;9.00;88.20;;;;;;5036403;28;20176;-87
2021/11/07 08:05:06;;;;;;;15.80;3.37;;;9.00;88.20;;;;;;5054004;28;20180;-89
2021/11/07 08:07:31;;;;;;;22.47;3.63;;;9.00;88.60;;;;;;5036156;28;20211;-90
2021/11/07 08:09:57;;;;;;;25.30;3.70;;;9.00;88.40;;;;;;5036293;28;20180;-88
2021/11/07 08:12:23;;;;;;;21.13;3.43;;;9.00;88.30;;;;;;5036161;28;20290;-88
2021/11/07 08:14:50;;;;;;;29.30;4.10;;;9.00;88.50;;;;;;5053915;28;20176;-88
2021/11/07 08:17:16;;;;;;;18.90;3.50;;;9.00;88.10;;;;;;5035867;28;20219;-87
2021/11/07 08:19:42;;;;;;;23.37;3.70;;;9.10;87.80;;;;;;5036267;28;20262;-86
2021/11/07 08:22:08;;;;;;;19.47;3.93;;;9.10;87.70;;;;;;5053795;28;20258;-88
2021/11/07 08:24:38;;;;;;;13.63;3.13;;;9.20;87.50;;;;;;5054099;28;20211;-90
2021/11/07 08:27:05;;;;;;;18.20;3.30;;;9.30;87.90;;;;;;5035810;28;20614;-86
2021/11/07 08:29:31;;;;;;;26.10;4.23;;;9.50;88.10;;;;;;5036177;28;20183;-88
2021/11/07 08:31:58;;;;;;;20.77;4.07;;;9.50;88.50;;;;;;5036484;28;20172;-88
2021/11/07 08:34:28;;;;;;;18.93;3.83;;;9.30;88.70;;;;;;5035795;28;20226;-88
2021/11/07 08:42:06;;;;;;;23.83;4.63;;;8.90;90.30;;;;;;5053993;28;20179;-90
2021/11/07 09:01:16;;;;;;;15.23;3.37;;;9.20;90.20;;;;;;5053554;28;20194;-89
2021/11/07 09:03:46;;;;;;;25.00;3.87;;;9.30;89.80;;;;;;5035531;28;20168;-89
2021/11/07 09:08:40;;;;;;;16.23;3.73;;;9.00;88.90;;;;;;5053519;28;20199;-89
2021/11/07 09:11:06;;;;;;;19.63;3.87;;;9.00;86.70;;;;;;5035603;28;20605;-90
2021/11/07 09:13:34;;;;;;;13.13;3.17;;;9.00;86.20;;;;;;5035973;28;20176;-91
2021/11/07 09:16:00;;;;;;;20.63;4.43;;;9.00;86.30;;;;;;5035424;28;20695;-90
2021/11/07 09:18:26;;;;;;;25.70;4.37;;;9.00;87.60;;;;;;5052914;28;20286;-90
2021/11/07 09:28:22;;;;;;;19.87;4.17;;;9.30;87.80;;;;;;5053263;28;20196;-90
2021/11/07 09:33:44;;;;;;;22.60;4.33;;;9.30;87.70;;;;;;5053675;28;20167;-89
2021/11/07 09:36:17;;;;;;;20.40;3.83;;;9.50;87.90;;;;;;5035751;28;20180;-88
2021/11/07 09:38:52;;;;;;;26.03;4.50;;;9.70;87.80;;;;;;5035225;28;20196;-88
2021/11/07 09:43:51;;;;;;;28.90;3.80;;;9.90;86.60;;;;;;5053398;28;20183;-89
2021/11/07 09:47:02;;;;;;;19.17;3.90;;;9.80;85.60;;;;;;5035333;28;20200;-90
2021/11/07 09:49:17;;;;;;;16.20;3.23;;;9.90;84.70;;;;;;5044526;28;20187;-89
2021/11/07 09:51:48;;;;;;;18.83;3.40;;;10.10;84.90;;;;;;5052861;28;20303;-89
2021/11/07 09:54:17;;;;;;;17.07;3.03;;;10.10;83.60;;;;;;5035334;28;20168;-89
2021/11/07 09:56:50;;;;;;;17.80;3.60;;;10.20;83.60;;;;;;5034902;28;20233;-88
2021/11/07 09:59:16;;;;;;;19.93;3.70;;;10.00;84.10;;;;;;5038591;28;20255;-88
2021/11/07 10:01:42;;;;;;;19.77;3.63;;;9.80;86.40;;;;;;5038655;28;20180;-89
2021/11/07 10:04:09;;;;;;;26.10;4.60;;;9.70;86.80;;;;;;5038471;28;20556;-87
2021/11/07 10:06:46;;;;;;;28.60;5.00;;;9.60;86.50;;;;;;5038588;28;20203;-88
2021/11/07 10:09:26;;;;;;;19.73;3.13;;;9.30;87.60;;;;;;5038549;28;20651;-88
2021/11/07 10:12:22;;;;;;;22.63;4.33;;;9.20;87.20;;;;;;5056395;28;20152;-89
2021/11/07 10:15:01;;;;;;;23.33;4.10;;;9.20;88.20;;;;;;5031461;28;20275;-89
2021/11/07 10:17:36;;;;;;;27.87;5.97;;;9.60;89.20;;;;;;5038263;28;20813;-89
2021/11/07 10:20:23;;;;;;;32.17;5.97;;;9.80;89.10;;;;;;5056695;28;20162;-88
2021/11/07 10:23:01;;;;;;;30.73;5.03;;;9.90;88.20;;;;;;5038331;28;20210;-88
2021/11/07 10:25:45;;;;;;;26.20;4.07;;;10.00;87.60;;;;;;5056105;28;20184;-88
2021/11/07 10:28:25;;;;;;;27.90;5.67;;;10.20;87.50;;;;;;5056079;28;20188;-87
2021/11/07 10:31:13;;;;;;;28.90;4.80;;;10.30;86.50;;;;;;5038234;28;20172;-88
2021/11/07 10:53:18;;;;;;;22.63;4.43;;;10.00;85.90;;;;;;5056136;28;20163;-88
2021/11/07 10:55:51;;;;;;;17.57;3.97;;;10.20;86.10;;;;;;5038000;28;20217;-88
2021/11/07 10:58:28;;;;;;;17.50;4.27;;;10.30;85.00;;;;;;5037931;28;20553;-88
2021/11/07 11:00:54;;;;;;;17.03;3.57;;;10.60;84.90;;;;;;5037698;28;20255;-87
2021/11/07 11:03:22;;;;;;;23.00;4.17;;;10.50;85.20;;;;;;5037426;28;20259;-89
2021/11/07 11:05:58;;;;;;;10.60;2.47;;;10.50;85.90;;;;;;5037634;28;20303;-89
2021/11/07 11:08:29;;;;;;;22.70;3.37;;;10.50;82.20;;;;;;5055105;28;20263;-88
2021/11/07 11:11:09;;;;;;;19.73;3.03;;;10.10;82.40;;;;;;5037304;28;20271;-90
2021/11/07 11:24:36;;;;;;;11.53;2.80;;;8.90;86.10;;;;;;5055412;28;20210;-89
2021/11/07 11:32:17;;;;;;;13.07;2.93;;;8.50;86.90;;;;;;5055551;28;20191;-87
2021/11/07 11:34:50;;;;;;;15.73;3.23;;;8.60;88.00;;;;;;5038602;28;20167;-88
2021/11/07 11:40:44;;;;;;;14.23;2.63;;;9.50;88.70;;;;;;5056579;28;20209;-88
2021/11/07 11:42:48;;;;;;;17.23;3.13;;;9.50;88.10;;;;;;5044057;28;20184;-89
2021/11/07 11:45:21;;;;;;;16.43;3.07;;;9.60;87.90;;;;;;5036943;28;20214;-88
2021/11/07 11:48:44;;;;;;;21.27;4.40;;;9.60;87.80;;;;;;5036605;28;20592;-88
2021/11/07 11:56:46;;;;;;;21.87;3.73;;;10.10;86.10;;;;;;5054585;28;20715;-89
2021/11/07 12:05:15;;;;;;;19.63;3.93;;;10.50;85.30;;;;;;5054368;28;20217;-89
2021/11/07 12:07:55;;;;;;;19.63;4.60;;;10.70;85.10;;;;;;5036048;28;20238;-89
2021/11/07 12:10:32;;;;;;;27.60;4.67;;;10.70;85.00;;;;;;5036243;28;20666;-88
2021/11/07 12:13:06;;;;;;;16.47;3.97;;;10.90;85.00;;;;;;5036305;28;20263;-89
2021/11/07 12:16:04;;;;;;;14.73;3.17;;;10.80;83.70;;;;;;5037338;28;20176;-89
2021/11/07 12:18:29;;;;;;;29.07;4.50;;;10.50;84.00;;;;;;5054243;28;20715;-88
2021/11/07 12:20:59;;;;;;;31.40;5.07;;;10.40;84.50;;;;;;5036265;28;20198;-89
2021/11/07 12:23:33;;;;;;;25.27;4.37;;;10.20;85.90;;;;;;5036765;28;20274;-89
2021/11/07 12:26:23;;;;;;;22.03;4.97;;;10.00;86.20;;;;;;5036641;28;20203;-89
2021/11/07 12:28:49;;;;;;;30.30;4.70;;;9.80;87.80;;;;;;5035970;28;20199;-88
2021/11/07 12:31:16;;;;;;;24.97;4.73;;;9.80;88.60;;;;;;5054419;28;20164;-88
2021/11/07 12:33:53;;;;;;;28.60;4.80;;;9.70;89.00;;;;;;5053790;28;20701;-89
2021/11/07 12:41:35;;;;;;;19.87;3.80;;;9.20;87.20;;;;;;5054016;28;20195;-90
2021/11/07 12:44:05;;;;;;;22.53;4.40;;;9.20;88.50;;;;;;5035927;28;20180;-90
2021/11/07 12:46:50;;;;;;;30.83;4.60;;;9.30;89.20;;;;;;5036333;28;20730;-88
2021/11/07 12:49:16;;;;;;;20.77;4.10;;;9.40;88.60;;;;;;5035717;28;20251;-90
2021/11/07 12:51:46;;;;;;;25.57;3.67;;;9.60;89.20;;;;;;5035966;28;20196;-89
2021/11/07 12:54:15;;;;;;;33.00;4.60;;;10.00;89.50;;;;;;5035783;28;20180;-89
2021/11/07 12:56:58;;;;;;;20.17;4.67;;;10.20;88.20;;;;;;5035299;28;20272;-90
2021/11/07 12:59:37;;;;;;;28.57;5.33;;;10.30;86.80;;;;;;5035491;28;20639;-89
2021/11/07 13:02:08;;;;;;;17.43;4.10;;;10.30;86.40;;;;;;5035550;28;20274;-89
2021/11/07 13:04:48;;;;;;;18.63;3.10;;;10.20;85.20;;;;;;5035760;28;20176;-88
2021/11/07 13:07:23;;;;;;;22.20;4.67;;;10.00;83.90;;;;;;5035496;28;20215;-88
2021/11/07 13:09:57;;;;;;;24.90;4.27;;;9.90;85.30;;;;;;5053640;28;20607;-90
2021/11/07 13:12:29;;;;;;;20.83;4.40;;;9.70;84.90;;;;;;5053124;28;20163;-90
2021/11/07 13:17:52;;;;;;;19.87;3.43;;;9.20;87.30;;;;;;5053365;28;20316;-90
2021/11/07 13:25:51;;;;;;;10.43;2.53;;;8.80;89.30;;;;;;5053265;28;20159;-89
2021/11/07 13:31:21;;;;;;;12.40;2.27;;;8.70;88.70;;;;;;5054095;28;20187;-91
2021/11/07 13:33:48;;;;;;;12.57;2.27;;;8.60;89.00;;;;;;5039896;28;20563;-89
2021/11/07 13:36:16;;;;;;;12.63;2.30;;;8.60;89.10;;;;;;5039121;28;20187;-91
2021/11/07 13:39:02;;;;;;;15.57;2.90;;;8.40;89.30;;;;;;5039310;28;20203;-91
2021/11/07 13:41:28;;;;;;;12.30;3.07;;;8.50;89.60;;;;;;5040054;28;20287;-88
2021/11/07 13:44:07;;;;;;;16.43;2.97;;;8.50;89.30;;;;;;5056752;28;20668;-90
2021/11/07 13:46:35;;;;;;;20.27;3.90;;;8.70;88.30;;;;;;5038738;28;20207;-89
2021/11/07 13:49:06;;;;;;;19.97;3.10;;;8.70;88.90;;;;;;5056675;28;20175;-89
2021/11/07 13:51:48;;;;;;;15.07;3.27;;;8.70;88.40;;;;;;5039476;28;20164;-89
2021/11/07 13:54:14;;;;;;;18.80;3.60;;;8.80;88.80;;;;;;5038734;28;20238;-91
2021/11/07 13:56:45;;;;;;;16.80;3.13;;;8.80;88.60;;;;;;5039126;28;20648;-89
2021/11/07 13:59:11;;;;;;;20.50;3.43;;;8.90;88.70;;;;;;5038568;28;20172;-90
2021/11/07 14:01:37;;;;;;;21.93;3.93;;;9.00;88.10;;;;;;5038601;28;20203;-91
2021/11/07 14:04:03;;;;;;;20.00;3.37;;;9.00;88.50;;;;;;5038507;28;20184;-90
2021/11/07 14:06:38;;;;;;;18.53;3.30;;;9.00;88.30;;;;;;5038721;28;20223;-89
2021/11/07 14:09:05;;;;;;;27.93;4.10;;;9.00;88.80;;;;;;5039315;28;20176;-90
2021/11/07 14:11:35;;;;;;;22.97;3.63;;;8.90;88.50;;;;;;5038422;28;20176;-90
2021/11/07 14:14:12;;;;;;;19.57;3.57;;;8.80;89.30;;;;;;5038361;28;20180;-91
2021/11/07 14:16:58;;;;;;;28.00;5.07;;;8.80;89.60;;;;;;5039065;28;20234;-90
2021/11/07 14:19:24;;;;;;;20.83;3.57;;;8.70;89.60;;;;;;5038947;28;20188;-91
2021/11/07 14:21:51;;;;;;;20.67;3.13;;;8.70;90.10;;;;;;5039031;28;20183;-89
2021/11/07 14:24:28;;;;;;;16.93;3.70;;;8.70;90.40;;;;;;5056081;28;20169;-91
2021/11/07 14:27:04;;;;;;;13.40;2.90;;;8.70;90.30;;;;;;5038081;28;20264;-91
2021/11/07 14:29:39;;;;;;;23.43;4.63;;;8.80;89.80;;;;;;5038284;28;20172;-91
2021/11/07 14:32:12;;;;;;;16.13;3.50;;;8.90;89.80;;;;;;5038406;28;20301;-91
2021/11/07 14:34:58;;;;;;;28.07;4.83;;;8.90;89.90;;;;;;5056722;28;20155;-91
2021/11/07 14:40:11;;;;;;;19.20;4.77;;;8.90;89.70;;;;;;5056196;28;20163;-90
2021/11/07 14:43:04;;;;;;;22.50;3.70;;;8.90;90.00;;;;;;5037206;28;20176;-90
2021/11/07 14:57:38;;;;;;;14.47;3.37;;;8.80;89.90;;;;;;5055352;28;20160;-90
2021/11/07 14:59:48;;;;;;;21.93;3.53;;;8.80;90.10;;;;;;5052107;28;20660;-89
2021/11/07 15:02:48;;;;;;;2.30;1.40;;;8.70;90.00;;;;;;5037796;28;20650;-91
2021/11/07 15:05:22;;;;;;;14.23;3.53;;;8.70;89.10;;;;;;5037477;28;20176;-91
2021/11/07 15:07:54;;;;;;;11.93;2.37;;;8.60;89.60;;;;;;5055466;28;20571;-90
2021/11/07 15:24:01;;;;;;;8.97;2.37;;;8.30;90.10;;;;;;5054950;28;20172;-89
2021/11/07 15:26:34;;;;;;;8.37;1.73;;;8.40;90.30;;;;;;5037813;28;20188;-89
2021/11/07 15:29:15;;;;;;;8.80;2.00;;;8.30;90.40;;;;;;5054839;28;20157;-89
2021/11/07 15:31:40;;;;;;;10.63;2.40;;;8.30;90.70;;;;;;5036821;28;20664;-90
2021/11/07 15:34:09;;;;;;;11.97;1.97;;;8.30;90.70;;;;;;5036847;28;20180;-90
2021/11/07 15:36:47;;;;;;;11.40;1.80;;;8.20;90.60;;;;;;5054644;28;20167;-90
2021/11/07 15:39:18;;;;;;;8.37;2.17;;;8.10;90.80;;;;;;5036785;28;20562;-90
2021/11/07 15:42:09;;;;;;;13.33;1.97;;;8.20;91.00;;;;;;5036823;28;20581;-90
2021/11/07 15:44:50;;;;;;;11.70;2.07;;;8.20;91.10;;;;;;5036699;28;20180;-90
2021/11/07 15:47:20;;;;;;;9.57;1.93;;;8.10;91.30;;;;;;5054348;28;20657;-91
2021/11/07 15:49:54;;;;;;;10.07;2.43;;;8.10;91.60;;;;;;5036669;28;20176;-89
2021/11/07 15:54:53;;;;;;;13.63;2.93;;;8.30;91.50;;;;;;5054235;28;20644;-88
2021/11/07 15:57:34;;;;;;;16.40;2.40;;;8.30;91.60;;;;;;5054453;28;20194;-89